• Join FlightAware (Why Join?)
  • Login
  • US Flag 
07:56AM EDT


 

Airport Tracker/Info


-or-


 

Live Flight TrackerFlight Track Log ✈ UCA3599 ✈ 04-Sep-2013 ✈ KBGM - KIAD

Flight Track Log - Related Links

Times and Time Zones

All times are in EDT time to prevent confusion due to time zone crossing. See the UCA3599 flight status page for this flight to view local times or setup timezone preferences in your user account.

Time Position Orientation Groundspeed Altitude Reporting Facility
EDT Latitude Longitude Course Direction KTS MPH feet Rate Location/Type
06:14AM 42.2342 -76.0194 212° Southwest 121 139 3,700  Level New York Center
06:15AM 42.2033 -76.0561 221° Southwest 202 232 4,900 1,200 Climbing New York Center
06:16AM 42.1539 -76.0914 208° Southwest 207 238 6,200 1,320 Climbing New York Center
06:17AM 42.1083 -76.1350 215° Southwest 207 238 7,600 1,320 Climbing New York Center
06:18AM 42.0608 -76.1731 211° Southwest 207 238 8,900 1,260 Climbing New York Center
06:19AM 42.0301 -76.2194 212° Southwest  Level FlightAware Approximate
06:19AM 42.0153 -76.2142 214° Southwest 214 246 10,200  Level New York Center
06:20AM 41.9675 -76.2547 212° Southwest 214 246 11,400 1,320 Climbing New York Center
06:21AM 41.9111 -76.3003 211° Southwest 219 252 12,900 1,200 Climbing New York Center
06:22AM 41.8633 -76.3436 214° Southwest 214 246 13,900 1,020 Climbing New York Center
06:23AM 41.8117 -76.3839 210° Southwest 214 246 15,000 960 Climbing New York Center
06:24AM 41.7661 -76.4217 212° Southwest 214 246 15,900 480 Climbing New York Center
06:25AM 41.7094 -76.4697 212° Southwest 227 261 16,000  Climbing New York Center
06:26AM 41.6403 -76.5250 211° Southwest 260 299 16,000  Level New York Center
06:27AM 41.5772 -76.5806 213° Southwest 272 313 16,000  Level New York Center
06:28AM 41.5164 -76.6278 210° Southwest 277 319 16,000  Level New York Center
06:29AM 41.4514 -76.6831 213° Southwest 277 319 16,000  Level New York Center
06:30AM 41.3794 -76.7458 213° Southwest 282 325 16,000  Level New York Center
06:31AM 41.3086 -76.7867 203° Southwest 287 330 16,000  Level New York Center
06:32AM 41.2308 -76.8017 188° South 281 323 16,000  Level New York Center
06:33AM 41.1508 -76.8167 188° South 286 329 16,000  Level New York Center
06:34AM 41.0792 -76.8297 188° South 293 337 16,000  Level New York Center
06:35AM 41.0014 -76.8447 188° South 293 337 16,000  Level New York Center
06:36AM 40.9172 -76.8592 187° South 293 337 16,000  Level New York Center
06:37AM 40.8456 -76.8747 189° South 293 337 16,000  Level New York Center
06:38AM 40.7594 -76.8917 188° South 293 337 16,000  Level New York Center
06:39AM 40.6914 -76.9156 195° South 293 337 16,000  Level New York Center
06:40AM 40.6086 -76.9439 195° South 282 325 16,000  Level New York Center
06:41AM 40.5389 -76.9650 193° South 287 330 16,000  Level New York Center
06:42AM 40.4519 -76.9897 192° South 287 330 16,000 -540 Level New York Center
06:44AM 40.3000 -77.0333 192° South 305 351 14,600 -840 Descending Potomac TRACON
06:45AM 40.2333 -77.0500 191° South 299 344 13,700 -1,020 Descending Potomac TRACON
06:46AM 40.1500 -77.0833 197° South 301 346 12,600 -1,020 Descending Potomac TRACON
06:47AM 40.0667 -77.1000 189° South 296 341 11,700 -1,020 Descending Potomac TRACON
06:48AM 40.0000 -77.1333 201° Southwest 291 335 10,700 -1,020 Descending Potomac TRACON
06:49AM 39.9167 -77.1667 197° South 281 323 9,700 -1,080 Descending Potomac TRACON
06:50AM 39.8500 -77.2167 210° Southwest 274 315 8,700 -900 Descending Potomac TRACON
06:51AM 39.8000 -77.2333 194° South 275 316 8,000 -360 Descending Potomac TRACON
06:52AM 39.7333 -77.2833 210° Southwest 265 305 8,000 -180 Level Potomac TRACON
06:52AM 39.6667 -77.3167 201° Southwest 262 302 7,700 -540 Descending Potomac TRACON
06:53AM 39.6000 -77.3667 210° Southwest 262 302 7,000 -720 Descending Potomac TRACON
06:54AM 39.5667 -77.4333 237° Southwest 263 303 6,400 -540 Descending Potomac TRACON
06:55AM 39.5000 -77.4167 169° South 260 299 6,000 -480 Descending Potomac TRACON
06:56AM 39.4333 -77.3833 159° South 269 310 5,500 -660 Descending Potomac TRACON
06:57AM 39.3667 -77.3833 180° South 266 306 4,800 -720 Descending Potomac TRACON
06:58AM 39.2833 -77.3667 171° South 265 305 4,100 -420 Descending Potomac TRACON
06:59AM 39.2167 -77.3667 180° South 252 290 4,000 -60 Descending Potomac TRACON
07:00AM 39.1667 -77.3500 166° South 247 284 4,000  Level Potomac TRACON
07:01AM 39.0833 -77.3500 180° South 254 292 4,000  Level Potomac TRACON
07:02AM 39.0167 -77.3500 180° South 259 298 4,000  Level Potomac TRACON
07:03AM 38.9500 -77.3500 180° South 265 305 4,000  Level Potomac TRACON
07:04AM 38.8667 -77.3500 180° South 265 305 4,000  Level Potomac TRACON
07:05AM 38.8167 -77.3667 195° South 255 293 4,000 -480 Level Potomac TRACON
07:06AM 38.7833 -77.4167 229° Southwest 222 255 3,100 -900 Descending Potomac TRACON
07:07AM 38.8167 -77.4333 339° North 188 216 2,300 -900 Descending Potomac TRACON
07:08AM 38.8667 -77.4333 360° North 147 169 1,400 -780 Descending Potomac TRACON
07:09AM 38.9000 -77.4333 360° North 116 133 800 -600 Descending Potomac TRACON